sensor_id;sensor_type;location;lat;lon;timestamp;P1;durP1;ratioP1;P2;durP2;ratioP2
7150;SDS011;3617;48.836;9.172;2023-02-08T00:00:30;17.73;;;9.63;;
7150;SDS011;3617;48.836;9.172;2023-02-08T00:02:56;15.67;;;9.33;;
7150;SDS011;3617;48.836;9.172;2023-02-08T00:05:22;16.50;;;8.97;;
7150;SDS011;3617;48.836;9.172;2023-02-08T00:07:48;18.77;;;9.37;;
7150;SDS011;3617;48.836;9.172;2023-02-08T00:10:14;17.83;;;8.97;;
7150;SDS011;3617;48.836;9.172;2023-02-08T00:12:40;17.53;;;8.70;;
7150;SDS011;3617;48.836;9.172;2023-02-08T00:15:06;13.23;;;8.27;;
7150;SDS011;3617;48.836;9.172;2023-02-08T00:17:32;13.73;;;8.30;;
7150;SDS011;3617;48.836;9.172;2023-02-08T00:19:58;16.80;;;9.77;;
7150;SDS011;3617;48.836;9.172;2023-02-08T00:22:24;20.93;;;10.23;;
7150;SDS011;3617;48.836;9.172;2023-02-08T00:24:50;16.83;;;8.60;;
7150;SDS011;3617;48.836;9.172;2023-02-08T00:27:16;17.10;;;9.30;;
7150;SDS011;3617;48.836;9.172;2023-02-08T00:29:43;18.50;;;9.23;;
7150;SDS011;3617;48.836;9.172;2023-02-08T00:32:09;15.93;;;9.13;;
7150;SDS011;3617;48.836;9.172;2023-02-08T00:34:35;15.80;;;9.13;;
7150;SDS011;3617;48.836;9.172;2023-02-08T00:37:02;17.23;;;9.63;;
7150;SDS011;3617;48.836;9.172;2023-02-08T00:39:28;17.03;;;8.40;;
7150;SDS011;3617;48.836;9.172;2023-02-08T00:41:54;14.70;;;9.43;;
7150;SDS011;3617;48.836;9.172;2023-02-08T00:44:20;17.10;;;9.47;;
7150;SDS011;3617;48.836;9.172;2023-02-08T00:46:46;18.17;;;8.20;;
7150;SDS011;3617;48.836;9.172;2023-02-08T00:49:12;13.10;;;8.00;;
7150;SDS011;3617;48.836;9.172;2023-02-08T00:51:38;16.87;;;9.10;;
7150;SDS011;3617;48.836;9.172;2023-02-08T00:54:04;15.80;;;8.47;;
7150;SDS011;3617;48.836;9.172;2023-02-08T00:56:30;13.67;;;8.17;;
7150;SDS011;3617;48.836;9.172;2023-02-08T00:58:56;17.17;;;8.53;;
7150;SDS011;3617;48.836;9.172;2023-02-08T01:01:22;15.30;;;8.43;;
7150;SDS011;3617;48.836;9.172;2023-02-08T01:03:48;14.60;;;8.70;;
7150;SDS011;3617;48.836;9.172;2023-02-08T01:06:15;15.70;;;8.10;;
7150;SDS011;3617;48.836;9.172;2023-02-08T01:08:42;15.10;;;8.20;;
7150;SDS011;3617;48.836;9.172;2023-02-08T01:11:09;15.30;;;8.73;;
7150;SDS011;3617;48.836;9.172;2023-02-08T01:13:37;19.17;;;8.53;;
7150;SDS011;3617;48.836;9.172;2023-02-08T01:16:14;16.53;;;9.20;;
7150;SDS011;3617;48.836;9.172;2023-02-08T01:18:41;16.00;;;8.27;;
7150;SDS011;3617;48.836;9.172;2023-02-08T01:21:11;15.00;;;8.43;;
7150;SDS011;3617;48.836;9.172;2023-02-08T01:23:38;14.70;;;9.03;;
7150;SDS011;3617;48.836;9.172;2023-02-08T01:26:04;12.97;;;8.57;;
7150;SDS011;3617;48.836;9.172;2023-02-08T01:28:30;21.90;;;8.90;;
7150;SDS011;3617;48.836;9.172;2023-02-08T01:30:56;17.37;;;9.30;;
7150;SDS011;3617;48.836;9.172;2023-02-08T01:33:23;18.23;;;9.33;;
7150;SDS011;3617;48.836;9.172;2023-02-08T01:35:50;12.70;;;8.37;;
7150;SDS011;3617;48.836;9.172;2023-02-08T01:38:16;15.80;;;8.67;;
7150;SDS011;3617;48.836;9.172;2023-02-08T01:40:42;16.50;;;9.10;;
7150;SDS011;3617;48.836;9.172;2023-02-08T01:43:17;14.67;;;8.70;;
7150;SDS011;3617;48.836;9.172;2023-02-08T01:45:45;13.20;;;7.77;;
7150;SDS011;3617;48.836;9.172;2023-02-08T01:48:12;15.57;;;8.87;;
7150;SDS011;3617;48.836;9.172;2023-02-08T01:50:41;13.13;;;8.63;;
7150;SDS011;3617;48.836;9.172;2023-02-08T01:53:08;16.00;;;9.40;;
7150;SDS011;3617;48.836;9.172;2023-02-08T01:55:36;14.13;;;8.67;;
7150;SDS011;3617;48.836;9.172;2023-02-08T01:58:04;13.97;;;8.40;;
7150;SDS011;3617;48.836;9.172;2023-02-08T02:00:30;15.90;;;8.10;;
7150;SDS011;3617;48.836;9.172;2023-02-08T02:02:56;13.57;;;7.83;;
7150;SDS011;3617;48.836;9.172;2023-02-08T02:05:24;14.37;;;8.67;;
7150;SDS011;3617;48.836;9.172;2023-02-08T02:07:51;13.40;;;7.87;;
7150;SDS011;3617;48.836;9.172;2023-02-08T02:10:20;16.80;;;8.53;;
7150;SDS011;3617;48.836;9.172;2023-02-08T02:12:48;14.73;;;8.70;;
7150;SDS011;3617;48.836;9.172;2023-02-08T02:15:15;15.77;;;7.90;;
7150;SDS011;3617;48.836;9.172;2023-02-08T02:17:41;13.63;;;8.00;;
7150;SDS011;3617;48.836;9.172;2023-02-08T02:20:17;18.03;;;9.23;;
7150;SDS011;3617;48.836;9.172;2023-02-08T02:35:53;14.73;;;8.90;;
7150;SDS011;3617;48.836;9.172;2023-02-08T02:40:54;15.03;;;8.80;;
7150;SDS011;3617;48.836;9.172;2023-02-08T02:46:17;19.13;;;9.10;;
7150;SDS011;3617;48.836;9.172;2023-02-08T02:48:49;20.80;;;10.23;;
7150;SDS011;3617;48.836;9.172;2023-02-08T02:51:24;23.00;;;11.83;;
7150;SDS011;3617;48.836;9.172;2023-02-08T02:56:22;24.97;;;11.57;;
7150;SDS011;3617;48.836;9.172;2023-02-08T02:58:49;17.67;;;9.17;;
7150;SDS011;3617;48.836;9.172;2023-02-08T03:01:22;20.77;;;9.47;;
7150;SDS011;3617;48.836;9.172;2023-02-08T03:03:54;20.80;;;10.07;;
7150;SDS011;3617;48.836;9.172;2023-02-08T03:11:31;26.13;;;11.27;;
7150;SDS011;3617;48.836;9.172;2023-02-08T03:26:38;26.43;;;11.67;;
7150;SDS011;3617;48.836;9.172;2023-02-08T03:34:05;24.97;;;8.93;;
7150;SDS011;3617;48.836;9.172;2023-02-08T03:39:03;19.23;;;9.03;;
7150;SDS011;3617;48.836;9.172;2023-02-08T03:41:33;18.20;;;8.83;;
7150;SDS011;3617;48.836;9.172;2023-02-08T03:44:04;16.27;;;9.30;;
7150;SDS011;3617;48.836;9.172;2023-02-08T03:46:34;15.97;;;9.23;;
7150;SDS011;3617;48.836;9.172;2023-02-08T03:49:03;16.60;;;8.53;;
7150;SDS011;3617;48.836;9.172;2023-02-08T03:51:30;14.57;;;8.30;;
7150;SDS011;3617;48.836;9.172;2023-02-08T03:53:57;16.20;;;8.40;;
7150;SDS011;3617;48.836;9.172;2023-02-08T03:56:45;17.00;;;8.70;;
7150;SDS011;3617;48.836;9.172;2023-02-08T03:59:12;14.37;;;8.67;;
7150;SDS011;3617;48.836;9.172;2023-02-08T04:01:42;15.03;;;7.90;;
7150;SDS011;3617;48.836;9.172;2023-02-08T04:04:08;16.93;;;8.57;;
7150;SDS011;3617;48.836;9.172;2023-02-08T04:06:34;17.13;;;8.30;;
7150;SDS011;3617;48.836;9.172;2023-02-08T04:09:00;19.07;;;9.07;;
7150;SDS011;3617;48.836;9.172;2023-02-08T04:11:26;18.83;;;8.73;;
7150;SDS011;3617;48.836;9.172;2023-02-08T04:13:52;13.50;;;8.50;;
7150;SDS011;3617;48.836;9.172;2023-02-08T04:16:18;14.97;;;8.47;;
7150;SDS011;3617;48.836;9.172;2023-02-08T04:18:44;16.17;;;8.67;;
7150;SDS011;3617;48.836;9.172;2023-02-08T04:21:10;19.53;;;9.57;;
7150;SDS011;3617;48.836;9.172;2023-02-08T04:23:36;18.63;;;8.70;;
7150;SDS011;3617;48.836;9.172;2023-02-08T04:26:02;14.77;;;8.13;;
7150;SDS011;3617;48.836;9.172;2023-02-08T04:28:28;15.93;;;8.30;;
7150;SDS011;3617;48.836;9.172;2023-02-08T04:30:54;17.97;;;8.47;;
7150;SDS011;3617;48.836;9.172;2023-02-08T04:33:21;14.93;;;7.73;;
7150;SDS011;3617;48.836;9.172;2023-02-08T04:35:47;11.63;;;7.77;;
7150;SDS011;3617;48.836;9.172;2023-02-08T04:38:13;17.13;;;8.30;;
7150;SDS011;3617;48.836;9.172;2023-02-08T04:40:39;18.90;;;8.53;;
7150;SDS011;3617;48.836;9.172;2023-02-08T04:43:05;15.60;;;8.07;;
7150;SDS011;3617;48.836;9.172;2023-02-08T04:45:31;17.67;;;7.83;;
7150;SDS011;3617;48.836;9.172;2023-02-08T04:47:57;13.03;;;7.10;;
7150;SDS011;3617;48.836;9.172;2023-02-08T04:50:25;14.93;;;8.17;;
7150;SDS011;3617;48.836;9.172;2023-02-08T04:52:51;17.00;;;8.23;;
7150;SDS011;3617;48.836;9.172;2023-02-08T04:55:17;15.40;;;7.37;;
7150;SDS011;3617;48.836;9.172;2023-02-08T04:57:43;16.97;;;8.57;;
7150;SDS011;3617;48.836;9.172;2023-02-08T05:00:09;16.33;;;8.23;;
7150;SDS011;3617;48.836;9.172;2023-02-08T05:02:36;14.20;;;7.30;;
7150;SDS011;3617;48.836;9.172;2023-02-08T05:05:02;18.83;;;8.60;;
7150;SDS011;3617;48.836;9.172;2023-02-08T05:07:28;13.93;;;9.07;;
7150;SDS011;3617;48.836;9.172;2023-02-08T05:09:54;13.90;;;7.77;;
7150;SDS011;3617;48.836;9.172;2023-02-08T05:12:20;22.57;;;8.53;;
7150;SDS011;3617;48.836;9.172;2023-02-08T05:14:46;13.60;;;9.03;;
7150;SDS011;3617;48.836;9.172;2023-02-08T05:17:12;19.17;;;9.10;;
7150;SDS011;3617;48.836;9.172;2023-02-08T05:19:38;19.17;;;9.10;;
7150;SDS011;3617;48.836;9.172;2023-02-08T05:22:04;19.93;;;8.07;;
7150;SDS011;3617;48.836;9.172;2023-02-08T05:24:30;16.20;;;8.40;;
7150;SDS011;3617;48.836;9.172;2023-02-08T05:26:56;14.43;;;8.20;;
7150;SDS011;3617;48.836;9.172;2023-02-08T05:29:22;18.67;;;8.63;;
7150;SDS011;3617;48.836;9.172;2023-02-08T05:31:48;16.13;;;8.57;;
7150;SDS011;3617;48.836;9.172;2023-02-08T05:34:14;17.27;;;9.03;;
7150;SDS011;3617;48.836;9.172;2023-02-08T05:36:40;14.50;;;8.83;;
7150;SDS011;3617;48.836;9.172;2023-02-08T05:39:06;16.17;;;8.97;;
7150;SDS011;3617;48.836;9.172;2023-02-08T05:41:32;17.93;;;9.07;;
7150;SDS011;3617;48.836;9.172;2023-02-08T05:43:58;16.67;;;8.57;;
7150;SDS011;3617;48.836;9.172;2023-02-08T05:46:24;16.47;;;9.43;;
7150;SDS011;3617;48.836;9.172;2023-02-08T05:48:50;17.20;;;9.73;;
7150;SDS011;3617;48.836;9.172;2023-02-08T05:51:16;19.00;;;9.87;;
7150;SDS011;3617;48.836;9.172;2023-02-08T05:53:42;19.33;;;8.93;;
7150;SDS011;3617;48.836;9.172;2023-02-08T05:56:09;16.03;;;9.40;;
7150;SDS011;3617;48.836;9.172;2023-02-08T05:58:35;13.43;;;7.67;;
7150;SDS011;3617;48.836;9.172;2023-02-08T06:01:06;17.43;;;9.37;;
7150;SDS011;3617;48.836;9.172;2023-02-08T06:03:32;16.87;;;8.33;;
7150;SDS011;3617;48.836;9.172;2023-02-08T06:05:59;19.70;;;8.67;;
7150;SDS011;3617;48.836;9.172;2023-02-08T06:08:25;15.70;;;9.27;;
7150;SDS011;3617;48.836;9.172;2023-02-08T06:10:52;17.67;;;7.83;;
7150;SDS011;3617;48.836;9.172;2023-02-08T06:13:18;20.50;;;9.30;;
7150;SDS011;3617;48.836;9.172;2023-02-08T06:15:44;18.60;;;9.93;;
7150;SDS011;3617;48.836;9.172;2023-02-08T06:18:11;19.63;;;10.43;;
7150;SDS011;3617;48.836;9.172;2023-02-08T06:20:37;18.07;;;8.70;;
7150;SDS011;3617;48.836;9.172;2023-02-08T06:23:03;14.37;;;8.87;;
7150;SDS011;3617;48.836;9.172;2023-02-08T06:25:29;18.87;;;10.53;;
7150;SDS011;3617;48.836;9.172;2023-02-08T06:27:55;18.77;;;9.53;;
7150;SDS011;3617;48.836;9.172;2023-02-08T06:30:21;17.67;;;9.30;;
7150;SDS011;3617;48.836;9.172;2023-02-08T06:32:47;16.03;;;10.00;;
7150;SDS011;3617;48.836;9.172;2023-02-08T06:35:13;16.97;;;10.03;;
7150;SDS011;3617;48.836;9.172;2023-02-08T06:37:39;18.43;;;8.97;;
7150;SDS011;3617;48.836;9.172;2023-02-08T06:40:05;15.40;;;8.80;;
7150;SDS011;3617;48.836;9.172;2023-02-08T06:42:31;19.30;;;9.17;;
7150;SDS011;3617;48.836;9.172;2023-02-08T06:44:57;13.47;;;8.23;;
7150;SDS011;3617;48.836;9.172;2023-02-08T06:47:24;22.17;;;10.00;;
7150;SDS011;3617;48.836;9.172;2023-02-08T06:49:50;20.00;;;10.20;;
7150;SDS011;3617;48.836;9.172;2023-02-08T06:52:16;17.17;;;8.83;;
7150;SDS011;3617;48.836;9.172;2023-02-08T06:54:43;21.07;;;9.43;;
7150;SDS011;3617;48.836;9.172;2023-02-08T06:57:09;17.47;;;9.90;;
7150;SDS011;3617;48.836;9.172;2023-02-08T06:59:37;16.27;;;8.83;;
7150;SDS011;3617;48.836;9.172;2023-02-08T07:02:03;19.10;;;8.97;;
7150;SDS011;3617;48.836;9.172;2023-02-08T07:04:29;26.47;;;9.87;;
7150;SDS011;3617;48.836;9.172;2023-02-08T07:06:55;19.27;;;8.90;;
7150;SDS011;3617;48.836;9.172;2023-02-08T07:09:21;15.77;;;9.03;;
7150;SDS011;3617;48.836;9.172;2023-02-08T07:11:47;18.13;;;10.83;;
7150;SDS011;3617;48.836;9.172;2023-02-08T07:14:14;19.47;;;11.00;;
7150;SDS011;3617;48.836;9.172;2023-02-08T07:16:40;22.30;;;10.77;;
7150;SDS011;3617;48.836;9.172;2023-02-08T07:19:06;20.63;;;11.03;;
7150;SDS011;3617;48.836;9.172;2023-02-08T07:21:32;19.00;;;9.97;;
7150;SDS011;3617;48.836;9.172;2023-02-08T07:23:58;21.30;;;11.97;;
7150;SDS011;3617;48.836;9.172;2023-02-08T07:26:24;20.73;;;10.73;;
7150;SDS011;3617;48.836;9.172;2023-02-08T07:28:50;22.33;;;11.57;;
7150;SDS011;3617;48.836;9.172;2023-02-08T07:31:16;19.47;;;11.57;;
7150;SDS011;3617;48.836;9.172;2023-02-08T07:33:42;22.27;;;11.97;;
7150;SDS011;3617;48.836;9.172;2023-02-08T07:36:08;25.47;;;13.27;;
7150;SDS011;3617;48.836;9.172;2023-02-08T07:38:35;28.10;;;11.80;;
7150;SDS011;3617;48.836;9.172;2023-02-08T07:41:02;27.83;;;11.73;;
7150;SDS011;3617;48.836;9.172;2023-02-08T07:43:28;23.47;;;11.77;;
7150;SDS011;3617;48.836;9.172;2023-02-08T07:45:54;22.53;;;11.63;;
7150;SDS011;3617;48.836;9.172;2023-02-08T07:48:20;28.37;;;12.03;;
7150;SDS011;3617;48.836;9.172;2023-02-08T07:50:46;28.83;;;12.93;;
7150;SDS011;3617;48.836;9.172;2023-02-08T07:53:12;20.57;;;11.03;;
7150;SDS011;3617;48.836;9.172;2023-02-08T07:55:38;30.43;;;12.33;;
7150;SDS011;3617;48.836;9.172;2023-02-08T07:58:04;23.43;;;10.67;;
7150;SDS011;3617;48.836;9.172;2023-02-08T08:00:30;22.63;;;11.40;;
7150;SDS011;3617;48.836;9.172;2023-02-08T08:02:56;21.37;;;11.30;;
7150;SDS011;3617;48.836;9.172;2023-02-08T08:05:22;22.60;;;11.37;;
7150;SDS011;3617;48.836;9.172;2023-02-08T08:07:48;21.13;;;11.30;;
7150;SDS011;3617;48.836;9.172;2023-02-08T08:10:14;22.57;;;11.50;;
7150;SDS011;3617;48.836;9.172;2023-02-08T08:12:40;31.37;;;12.37;;
7150;SDS011;3617;48.836;9.172;2023-02-08T08:15:06;20.93;;;10.53;;
7150;SDS011;3617;48.836;9.172;2023-02-08T08:17:32;21.77;;;9.80;;
7150;SDS011;3617;48.836;9.172;2023-02-08T08:19:58;22.07;;;11.27;;
7150;SDS011;3617;48.836;9.172;2023-02-08T08:22:24;25.50;;;10.30;;
7150;SDS011;3617;48.836;9.172;2023-02-08T08:24:50;18.87;;;11.13;;
7150;SDS011;3617;48.836;9.172;2023-02-08T08:27:16;21.37;;;10.60;;
7150;SDS011;3617;48.836;9.172;2023-02-08T08:29:42;18.90;;;10.10;;
7150;SDS011;3617;48.836;9.172;2023-02-08T08:32:08;22.93;;;10.57;;
7150;SDS011;3617;48.836;9.172;2023-02-08T08:34:34;20.63;;;9.43;;
7150;SDS011;3617;48.836;9.172;2023-02-08T08:37:01;13.90;;;8.80;;
7150;SDS011;3617;48.836;9.172;2023-02-08T08:39:27;15.63;;;8.67;;
7150;SDS011;3617;48.836;9.172;2023-02-08T08:41:56;16.30;;;9.53;;
7150;SDS011;3617;48.836;9.172;2023-02-08T08:44:23;17.67;;;9.53;;
7150;SDS011;3617;48.836;9.172;2023-02-08T08:46:48;17.67;;;9.43;;
7150;SDS011;3617;48.836;9.172;2023-02-08T08:49:15;15.33;;;8.03;;
7150;SDS011;3617;48.836;9.172;2023-02-08T08:51:41;16.27;;;8.60;;
7150;SDS011;3617;48.836;9.172;2023-02-08T08:54:07;16.03;;;9.13;;
7150;SDS011;3617;48.836;9.172;2023-02-08T08:56:33;15.83;;;8.57;;
7150;SDS011;3617;48.836;9.172;2023-02-08T08:58:59;17.00;;;8.23;;
7150;SDS011;3617;48.836;9.172;2023-02-08T09:01:25;16.40;;;8.43;;
7150;SDS011;3617;48.836;9.172;2023-02-08T09:03:51;17.03;;;8.63;;
7150;SDS011;3617;48.836;9.172;2023-02-08T09:06:17;13.37;;;7.63;;
7150;SDS011;3617;48.836;9.172;2023-02-08T09:08:43;12.57;;;7.83;;
7150;SDS011;3617;48.836;9.172;2023-02-08T09:11:10;15.83;;;7.20;;
7150;SDS011;3617;48.836;9.172;2023-02-08T09:13:37;14.00;;;7.80;;
7150;SDS011;3617;48.836;9.172;2023-02-08T09:16:07;16.93;;;8.17;;
7150;SDS011;3617;48.836;9.172;2023-02-08T09:18:34;11.63;;;7.50;;
7150;SDS011;3617;48.836;9.172;2023-02-08T09:21:10;13.53;;;8.17;;
7150;SDS011;3617;48.836;9.172;2023-02-08T09:23:36;14.80;;;7.83;;
7150;SDS011;3617;48.836;9.172;2023-02-08T09:26:03;14.93;;;7.63;;
7150;SDS011;3617;48.836;9.172;2023-02-08T09:28:29;16.07;;;8.50;;
7150;SDS011;3617;48.836;9.172;2023-02-08T09:30:55;14.13;;;7.73;;
7150;SDS011;3617;48.836;9.172;2023-02-08T09:33:21;12.97;;;7.63;;
7150;SDS011;3617;48.836;9.172;2023-02-08T09:35:47;12.90;;;8.20;;
7150;SDS011;3617;48.836;9.172;2023-02-08T09:38:13;12.70;;;7.30;;
7150;SDS011;3617;48.836;9.172;2023-02-08T09:40:48;13.57;;;8.00;;
7150;SDS011;3617;48.836;9.172;2023-02-08T09:44:04;13.20;;;8.20;;
7150;SDS011;3617;48.836;9.172;2023-02-08T09:46:07;12.90;;;8.13;;
7150;SDS011;3617;48.836;9.172;2023-02-08T09:48:37;14.43;;;8.43;;
7150;SDS011;3617;48.836;9.172;2023-02-08T09:51:06;13.57;;;8.33;;
7150;SDS011;3617;48.836;9.172;2023-02-08T09:53:35;14.10;;;9.00;;
7150;SDS011;3617;48.836;9.172;2023-02-08T09:56:05;12.73;;;7.83;;
7150;SDS011;3617;48.836;9.172;2023-02-08T10:01:01;13.67;;;9.00;;
7150;SDS011;3617;48.836;9.172;2023-02-08T10:03:40;13.13;;;8.27;;
7150;SDS011;3617;48.836;9.172;2023-02-08T10:06:09;13.37;;;8.20;;
7150;SDS011;3617;48.836;9.172;2023-02-08T10:08:36;15.60;;;8.57;;
7150;SDS011;3617;48.836;9.172;2023-02-08T10:11:18;16.77;;;8.20;;
7150;SDS011;3617;48.836;9.172;2023-02-08T10:27:23;17.83;;;8.93;;
7150;SDS011;3617;48.836;9.172;2023-02-08T10:32:35;13.37;;;8.30;;
7150;SDS011;3617;48.836;9.172;2023-02-08T10:35:07;14.30;;;8.67;;
7150;SDS011;3617;48.836;9.172;2023-02-08T10:37:37;14.17;;;8.73;;
7150;SDS011;3617;48.836;9.172;2023-02-08T10:40:48;15.00;;;8.90;;
7150;SDS011;3617;48.836;9.172;2023-02-08T10:43:17;14.97;;;8.37;;
7150;SDS011;3617;48.836;9.172;2023-02-08T10:45:42;14.63;;;8.50;;
7150;SDS011;3617;48.836;9.172;2023-02-08T10:48:12;15.90;;;8.67;;
7150;SDS011;3617;48.836;9.172;2023-02-08T10:50:39;13.17;;;7.73;;
7150;SDS011;3617;48.836;9.172;2023-02-08T10:53:14;14.00;;;8.00;;
7150;SDS011;3617;48.836;9.172;2023-02-08T10:55:44;13.03;;;8.50;;
7150;SDS011;3617;48.836;9.172;2023-02-08T10:58:12;13.50;;;8.27;;
7150;SDS011;3617;48.836;9.172;2023-02-08T11:00:39;13.77;;;8.17;;
7150;SDS011;3617;48.836;9.172;2023-02-08T11:03:15;15.00;;;8.17;;
7150;SDS011;3617;48.836;9.172;2023-02-08T11:05:42;12.70;;;7.60;;
7150;SDS011;3617;48.836;9.172;2023-02-08T11:08:10;14.20;;;8.13;;
7150;SDS011;3617;48.836;9.172;2023-02-08T11:10:39;13.63;;;8.17;;
7150;SDS011;3617;48.836;9.172;2023-02-08T11:13:17;12.77;;;7.77;;
7150;SDS011;3617;48.836;9.172;2023-02-08T11:15:45;15.47;;;8.17;;
7150;SDS011;3617;48.836;9.172;2023-02-08T11:20:45;18.73;;;7.83;;
7150;SDS011;3617;48.836;9.172;2023-02-08T11:23:31;11.77;;;7.80;;
7150;SDS011;3617;48.836;9.172;2023-02-08T11:28:42;14.03;;;7.33;;
7150;SDS011;3617;48.836;9.172;2023-02-08T11:31:18;11.67;;;7.77;;
7150;SDS011;3617;48.836;9.172;2023-02-08T11:34:04;11.53;;;7.57;;
7150;SDS011;3617;48.836;9.172;2023-02-08T11:36:31;14.17;;;7.23;;
7150;SDS011;3617;48.836;9.172;2023-02-08T11:38:59;10.57;;;7.20;;
7150;SDS011;3617;48.836;9.172;2023-02-08T11:41:26;13.43;;;7.43;;
7150;SDS011;3617;48.836;9.172;2023-02-08T11:43:57;12.07;;;6.90;;
7150;SDS011;3617;48.836;9.172;2023-02-08T11:46:25;11.50;;;6.43;;
7150;SDS011;3617;48.836;9.172;2023-02-08T11:48:52;13.03;;;7.23;;
7150;SDS011;3617;48.836;9.172;2023-02-08T11:51:29;11.67;;;6.80;;
7150;SDS011;3617;48.836;9.172;2023-02-08T11:53:56;9.97;;;6.00;;
7150;SDS011;3617;48.836;9.172;2023-02-08T11:56:28;9.97;;;6.37;;
7150;SDS011;3617;48.836;9.172;2023-02-08T11:59:05;10.23;;;5.63;;
7150;SDS011;3617;48.836;9.172;2023-02-08T12:01:40;11.60;;;5.47;;
7150;SDS011;3617;48.836;9.172;2023-02-08T12:04:09;10.80;;;6.17;;
7150;SDS011;3617;48.836;9.172;2023-02-08T12:06:39;9.03;;;5.63;;
7150;SDS011;3617;48.836;9.172;2023-02-08T12:09:19;8.57;;;5.43;;
7150;SDS011;3617;48.836;9.172;2023-02-08T12:11:53;10.20;;;5.77;;
7150;SDS011;3617;48.836;9.172;2023-02-08T12:22:08;9.33;;;5.37;;
7150;SDS011;3617;48.836;9.172;2023-02-08T12:24:43;8.70;;;5.13;;
7150;SDS011;3617;48.836;9.172;2023-02-08T12:27:20;6.93;;;4.40;;
7150;SDS011;3617;48.836;9.172;2023-02-08T12:38:10;6.80;;;3.93;;
7150;SDS011;3617;48.836;9.172;2023-02-08T12:43:40;5.63;;;3.60;;
7150;SDS011;3617;48.836;9.172;2023-02-08T12:53:53;8.10;;;4.80;;
7150;SDS011;3617;48.836;9.172;2023-02-08T12:56:21;6.73;;;4.30;;
7150;SDS011;3617;48.836;9.172;2023-02-08T12:58:51;6.90;;;4.17;;
7150;SDS011;3617;48.836;9.172;2023-02-08T13:01:22;8.13;;;4.30;;
7150;SDS011;3617;48.836;9.172;2023-02-08T13:03:52;7.50;;;4.20;;
7150;SDS011;3617;48.836;9.172;2023-02-08T13:06:21;9.55;;;3.58;;
7150;SDS011;3617;48.836;9.172;2023-02-08T13:11:19;6.55;;;3.92;;
7150;SDS011;3617;48.836;9.172;2023-02-08T13:13:51;8.93;;;4.10;;
7150;SDS011;3617;48.836;9.172;2023-02-08T13:16:23;6.75;;;3.95;;
7150;SDS011;3617;48.836;9.172;2023-02-08T13:18:52;6.70;;;4.07;;
7150;SDS011;3617;48.836;9.172;2023-02-08T13:21:20;6.78;;;4.30;;
7150;SDS011;3617;48.836;9.172;2023-02-08T13:23:47;5.43;;;3.73;;
7150;SDS011;3617;48.836;9.172;2023-02-08T13:26:15;8.03;;;3.93;;
7150;SDS011;3617;48.836;9.172;2023-02-08T13:28:49;7.00;;;3.90;;
7150;SDS011;3617;48.836;9.172;2023-02-08T13:31:21;7.37;;;3.90;;
7150;SDS011;3617;48.836;9.172;2023-02-08T13:36:34;6.57;;;4.37;;
7150;SDS011;3617;48.836;9.172;2023-02-08T13:39:02;5.47;;;3.30;;
7150;SDS011;3617;48.836;9.172;2023-02-08T13:41:29;6.23;;;4.10;;
7150;SDS011;3617;48.836;9.172;2023-02-08T13:43:57;5.87;;;3.93;;
7150;SDS011;3617;48.836;9.172;2023-02-08T13:46:25;7.23;;;3.80;;
7150;SDS011;3617;48.836;9.172;2023-02-08T13:48:53;6.63;;;4.03;;
7150;SDS011;3617;48.836;9.172;2023-02-08T14:04:36;5.80;;;3.70;;
7150;SDS011;3617;48.836;9.172;2023-02-08T14:07:04;8.80;;;3.83;;
7150;SDS011;3617;48.836;9.172;2023-02-08T14:09:37;7.33;;;4.27;;
7150;SDS011;3617;48.836;9.172;2023-02-08T14:12:15;8.07;;;4.17;;
7150;SDS011;3617;48.836;9.172;2023-02-08T14:14:44;7.10;;;3.87;;
7150;SDS011;3617;48.836;9.172;2023-02-08T14:17:29;6.23;;;4.17;;
7150;SDS011;3617;48.836;9.172;2023-02-08T14:20:02;12.03;;;3.67;;
7150;SDS011;3617;48.836;9.172;2023-02-08T14:22:34;7.97;;;4.77;;
7150;SDS011;3617;48.836;9.172;2023-02-08T14:25:15;8.07;;;4.50;;
7150;SDS011;3617;48.836;9.172;2023-02-08T14:27:59;6.07;;;4.10;;
7150;SDS011;3617;48.836;9.172;2023-02-08T14:30:32;7.07;;;4.17;;
7150;SDS011;3617;48.836;9.172;2023-02-08T14:35:31;7.50;;;4.60;;
7150;SDS011;3617;48.836;9.172;2023-02-08T14:45:47;8.37;;;4.60;;
7150;SDS011;3617;48.836;9.172;2023-02-08T14:48:27;9.97;;;4.80;;
7150;SDS011;3617;48.836;9.172;2023-02-08T14:53:43;7.80;;;4.97;;
7150;SDS011;3617;48.836;9.172;2023-02-08T14:58:43;10.73;;;5.33;;
7150;SDS011;3617;48.836;9.172;2023-02-08T15:01:16;8.73;;;4.90;;
7150;SDS011;3617;48.836;9.172;2023-02-08T15:03:43;8.70;;;4.70;;
7150;SDS011;3617;48.836;9.172;2023-02-08T15:08:38;11.80;;;5.40;;
7150;SDS011;3617;48.836;9.172;2023-02-08T15:11:04;10.60;;;5.33;;
7150;SDS011;3617;48.836;9.172;2023-02-08T15:13:30;10.87;;;5.23;;
7150;SDS011;3617;48.836;9.172;2023-02-08T15:15:56;9.37;;;5.10;;
7150;SDS011;3617;48.836;9.172;2023-02-08T15:18:29;9.43;;;4.60;;
7150;SDS011;3617;48.836;9.172;2023-02-08T15:21:03;7.47;;;5.03;;
7150;SDS011;3617;48.836;9.172;2023-02-08T15:23:30;7.53;;;5.00;;
7150;SDS011;3617;48.836;9.172;2023-02-08T15:25:59;7.57;;;4.90;;
7150;SDS011;3617;48.836;9.172;2023-02-08T15:28:26;9.07;;;4.60;;
7150;SDS011;3617;48.836;9.172;2023-02-08T15:31:00;8.77;;;4.93;;
7150;SDS011;3617;48.836;9.172;2023-02-08T15:33:27;7.60;;;5.27;;
7150;SDS011;3617;48.836;9.172;2023-02-08T15:36:00;10.33;;;5.63;;
7150;SDS011;3617;48.836;9.172;2023-02-08T15:38:26;11.90;;;5.73;;
7150;SDS011;3617;48.836;9.172;2023-02-08T15:41:03;9.23;;;5.53;;
7150;SDS011;3617;48.836;9.172;2023-02-08T15:43:30;11.73;;;5.80;;
7150;SDS011;3617;48.836;9.172;2023-02-08T15:45:57;9.37;;;5.33;;
7150;SDS011;3617;48.836;9.172;2023-02-08T15:48:24;9.37;;;4.90;;
7150;SDS011;3617;48.836;9.172;2023-02-08T15:50:51;9.20;;;5.40;;
7150;SDS011;3617;48.836;9.172;2023-02-08T15:53:17;8.80;;;4.90;;
7150;SDS011;3617;48.836;9.172;2023-02-08T15:55:53;8.90;;;5.07;;
7150;SDS011;3617;48.836;9.172;2023-02-08T16:00:54;10.00;;;5.40;;
7150;SDS011;3617;48.836;9.172;2023-02-08T16:03:21;11.20;;;5.60;;
7150;SDS011;3617;48.836;9.172;2023-02-08T16:05:52;9.70;;;5.10;;
7150;SDS011;3617;48.836;9.172;2023-02-08T16:08:20;9.13;;;5.27;;
7150;SDS011;3617;48.836;9.172;2023-02-08T16:10:47;10.63;;;5.70;;
7150;SDS011;3617;48.836;9.172;2023-02-08T16:13:21;7.67;;;4.70;;
7150;SDS011;3617;48.836;9.172;2023-02-08T16:15:50;10.90;;;6.07;;
7150;SDS011;3617;48.836;9.172;2023-02-08T16:18:30;10.40;;;5.90;;
7150;SDS011;3617;48.836;9.172;2023-02-08T16:20:58;9.87;;;5.50;;
7150;SDS011;3617;48.836;9.172;2023-02-08T16:23:25;10.97;;;6.80;;
7150;SDS011;3617;48.836;9.172;2023-02-08T16:25:52;11.10;;;6.27;;
7150;SDS011;3617;48.836;9.172;2023-02-08T16:30:50;12.50;;;6.07;;
7150;SDS011;3617;48.836;9.172;2023-02-08T16:33:16;10.57;;;5.90;;
7150;SDS011;3617;48.836;9.172;2023-02-08T16:35:43;10.63;;;5.80;;
7150;SDS011;3617;48.836;9.172;2023-02-08T16:38:09;11.70;;;6.67;;
7150;SDS011;3617;48.836;9.172;2023-02-08T16:40:51;13.40;;;6.67;;
7150;SDS011;3617;48.836;9.172;2023-02-08T16:48:35;12.17;;;6.83;;
7150;SDS011;3617;48.836;9.172;2023-02-08T16:51:01;14.93;;;8.50;;
7150;SDS011;3617;48.836;9.172;2023-02-08T16:53:28;14.43;;;8.20;;
7150;SDS011;3617;48.836;9.172;2023-02-08T16:55:55;14.47;;;7.20;;
7150;SDS011;3617;48.836;9.172;2023-02-08T16:58:21;10.87;;;7.13;;
7150;SDS011;3617;48.836;9.172;2023-02-08T17:00:47;13.80;;;7.63;;
7150;SDS011;3617;48.836;9.172;2023-02-08T17:03:13;13.67;;;7.77;;
7150;SDS011;3617;48.836;9.172;2023-02-08T17:05:39;15.70;;;8.27;;
7150;SDS011;3617;48.836;9.172;2023-02-08T17:08:07;14.47;;;7.80;;
7150;SDS011;3617;48.836;9.172;2023-02-08T17:10:35;15.77;;;8.33;;
7150;SDS011;3617;48.836;9.172;2023-02-08T17:13:01;16.40;;;7.30;;
7150;SDS011;3617;48.836;9.172;2023-02-08T17:15:28;25.20;;;11.10;;
7150;SDS011;3617;48.836;9.172;2023-02-08T17:17:54;16.67;;;7.83;;
7150;SDS011;3617;48.836;9.172;2023-02-08T17:22:46;19.50;;;9.37;;
7150;SDS011;3617;48.836;9.172;2023-02-08T17:25:13;18.77;;;8.53;;
7150;SDS011;3617;48.836;9.172;2023-02-08T17:27:44;45.70;;;17.60;;
7150;SDS011;3617;48.836;9.172;2023-02-08T17:30:17;39.03;;;15.87;;
7150;SDS011;3617;48.836;9.172;2023-02-08T17:32:44;16.70;;;8.73;;
7150;SDS011;3617;48.836;9.172;2023-02-08T17:35:12;19.43;;;8.57;;